createdAt,value
2022-11-17T00:00:41.991Z,98348.03
2022-11-17T00:03:19.685Z,98352.69
2022-11-17T00:05:47.021Z,98351.56
2022-11-17T00:08:14.664Z,98357.13
2022-11-17T00:10:41.979Z,98353.06
2022-11-17T00:13:29.491Z,98358.09
2022-11-17T00:15:57.081Z,98355.16
2022-11-17T00:18:42.833Z,98348.16
2022-11-17T00:21:23.614Z,98349.75
2022-11-17T00:23:51.214Z,98345.38
2022-11-17T00:26:28.812Z,98343.69
2022-11-17T00:28:58.020Z,98342.03
2022-11-17T00:31:45.270Z,98344.47
2022-11-17T00:34:15.492Z,98348.78
2022-11-17T00:36:51.025Z,98344.97
2022-11-17T00:39:20.220Z,98343.03
2022-11-17T00:41:47.844Z,98350.38
2022-11-17T00:44:15.542Z,98342.41
2022-11-17T00:46:43.275Z,98342.66
2022-11-17T00:49:11.380Z,98344.03
2022-11-17T00:51:39.072Z,98345.44
2022-11-17T00:54:07.838Z,98346.87
2022-11-17T00:56:35.389Z,98338.47
2022-11-17T00:59:02.778Z,98343.62
2022-11-17T01:01:30.336Z,98340.06
2022-11-17T01:04:03.313Z,98340.69
2022-11-17T01:06:42.814Z,98327.00
2022-11-17T01:09:14.041Z,98323.41
2022-11-17T01:11:42.068Z,98323.31
2022-11-17T01:14:18.112Z,98317.09
2022-11-17T01:16:46.135Z,98313.91
2022-11-17T01:19:14.702Z,98306.38
2022-11-17T01:21:42.018Z,98305.41
2022-11-17T01:24:11.251Z,98296.69
2022-11-17T01:26:39.668Z,98298.72
2022-11-17T01:29:07.796Z,98299.22
2022-11-17T01:31:37.545Z,98305.47
2022-11-17T01:34:05.945Z,98298.59
2022-11-17T01:36:57.575Z,98300.34
2022-11-17T01:39:26.848Z,98295.03
2022-11-17T01:41:54.573Z,98295.34
2022-11-17T01:44:49.096Z,98304.41
2022-11-17T01:47:25.517Z,98299.91
2022-11-17T01:49:56.745Z,98302.22
2022-11-17T01:52:25.070Z,98301.81
2022-11-17T01:54:54.232Z,98311.50
2022-11-17T01:57:27.074Z,98315.06
2022-11-17T01:59:58.736Z,98313.47
2022-11-17T02:02:26.118Z,98316.69
2022-11-17T02:05:04.485Z,98322.31
2022-11-17T02:07:35.024Z,98312.16
2022-11-17T02:10:03.178Z,98321.81
2022-11-17T02:12:32.193Z,98326.38
2022-11-17T02:15:00.421Z,98337.09
2022-11-17T02:17:35.380Z,98323.25
2022-11-17T02:20:07.798Z,98318.50
2022-11-17T02:22:48.296Z,98315.22
2022-11-17T02:25:30.902Z,98317.94
2022-11-17T02:28:28.208Z,98306.56
2022-11-17T02:31:37.196Z,98307.44
2022-11-17T02:34:31.744Z,98307.16
2022-11-17T02:37:04.011Z,98290.94
2022-11-17T02:39:42.147Z,98289.28
2022-11-17T02:42:52.992Z,98292.06
2022-11-17T02:45:40.024Z,98289.00
2022-11-17T02:48:13.325Z,98286.63
2022-11-17T02:50:42.123Z,98284.66
2022-11-17T02:53:09.962Z,98289.84
2022-11-17T02:55:37.951Z,98292.53
2022-11-17T02:58:11.147Z,98299.06
2022-11-17T03:01:05.066Z,98290.91
2022-11-17T03:03:40.074Z,98288.38
2022-11-17T03:06:20.232Z,98277.59
2022-11-17T03:08:53.581Z,98272.75
2022-11-17T03:11:23.398Z,98270.41
2022-11-17T03:14:01.636Z,98269.84
2022-11-17T03:16:38.043Z,98265.81
2022-11-17T03:19:47.948Z,98263.13
2022-11-17T03:22:22.964Z,98270.59
2022-11-17T03:24:59.818Z,98258.66
2022-11-17T03:27:31.037Z,98248.41
2022-11-17T03:30:01.009Z,98262.16
2022-11-17T03:32:33.055Z,98248.31
2022-11-17T03:35:05.625Z,98253.13
2022-11-17T03:37:34.615Z,98259.53
2022-11-17T03:40:05.103Z,98266.50
2022-11-17T03:42:35.518Z,98285.22
2022-11-17T03:45:11.451Z,98292.06
2022-11-17T03:47:54.318Z,98304.75
2022-11-17T03:50:32.289Z,98311.19
2022-11-17T03:53:02.007Z,98316.66
2022-11-17T03:55:36.748Z,98317.47
2022-11-17T03:58:07.788Z,98323.16
2022-11-17T04:00:36.415Z,98327.13
2022-11-17T04:03:04.010Z,98324.75
2022-11-17T04:05:31.317Z,98321.50
2022-11-17T04:07:58.645Z,98316.13
2022-11-17T04:10:26.735Z,98320.16
2022-11-17T04:13:20.727Z,98317.19
2022-11-17T04:15:57.160Z,98304.50
2022-11-17T04:18:24.740Z,98306.38
2022-11-17T04:20:54.385Z,98309.63
2022-11-17T04:23:22.488Z,98313.62
2022-11-17T04:26:10.889Z,98309.53
2022-11-17T04:28:42.604Z,98314.19
2022-11-17T04:31:14.486Z,98326.84
2022-11-17T04:33:44.222Z,98313.38
2022-11-17T04:36:13.916Z,98312.28
2022-11-17T04:38:43.204Z,98309.84
2022-11-17T04:41:30.742Z,98316.06
2022-11-17T04:43:58.661Z,98315.47
2022-11-17T04:46:27.149Z,98313.38
2022-11-17T04:48:55.150Z,98318.97
2022-11-17T04:51:23.368Z,98321.34
2022-11-17T04:53:51.081Z,98330.03
2022-11-17T04:56:19.373Z,98314.88
2022-11-17T04:58:47.634Z,98325.06
2022-11-17T05:01:16.549Z,98318.09
2022-11-17T05:03:51.616Z,98328.97
2022-11-17T05:06:26.202Z,98332.63
2022-11-17T05:08:55.744Z,98338.78
2022-11-17T05:11:44.231Z,98335.56
2022-11-17T05:14:12.455Z,98349.31
2022-11-17T05:16:58.625Z,98344.19
2022-11-17T05:19:27.910Z,98349.91
2022-11-17T05:21:55.706Z,98354.19
2022-11-17T05:24:23.232Z,98354.19
2022-11-17T05:26:50.854Z,98346.91
2022-11-17T05:29:20.773Z,98351.75
2022-11-17T05:31:48.452Z,98347.87
2022-11-17T05:34:17.435Z,98340.66
2022-11-17T05:36:45.579Z,98348.72
2022-11-17T05:39:14.042Z,98348.16
2022-11-17T05:41:41.672Z,98345.16
2022-11-17T05:44:09.308Z,98331.09
2022-11-17T05:46:36.805Z,98340.59
2022-11-17T05:49:04.211Z,98339.00
2022-11-17T05:51:32.416Z,98346.94
2022-11-17T05:53:59.727Z,98354.47
2022-11-17T05:56:33.176Z,98354.78
2022-11-17T05:59:10.460Z,98353.13
2022-11-17T06:01:42.528Z,98353.13
2022-11-17T06:04:10.734Z,98360.72
2022-11-17T06:06:38.089Z,98367.72
2022-11-17T06:09:05.619Z,98370.44
2022-11-17T06:11:33.207Z,98362.63
2022-11-17T06:14:00.614Z,98379.38
2022-11-17T06:16:29.861Z,98367.50
2022-11-17T06:19:06.500Z,98366.12
2022-11-17T06:22:04.328Z,98367.22
2022-11-17T06:24:23.346Z,98369.66
2022-11-17T06:26:51.096Z,98370.47
2022-11-17T06:29:18.508Z,98367.94
2022-11-17T06:31:46.345Z,98360.19
2022-11-17T06:34:13.810Z,98361.00
2022-11-17T06:36:41.119Z,98365.59
2022-11-17T06:39:08.694Z,98366.38
2022-11-17T06:41:37.089Z,98369.34
2022-11-17T06:44:04.478Z,98374.50
2022-11-17T06:46:38.010Z,98384.81
2022-11-17T06:49:07.065Z,98384.00
2022-11-17T06:51:35.627Z,98391.78
2022-11-17T06:54:03.964Z,98390.47
2022-11-17T06:56:31.453Z,98396.69
2022-11-17T06:58:59.738Z,98389.09
2022-11-17T07:01:27.105Z,98395.03
2022-11-17T07:03:54.482Z,98407.53
2022-11-17T07:06:22.400Z,98399.94
2022-11-17T07:08:50.831Z,98410.44
2022-11-17T07:11:19.200Z,98408.84
2022-11-17T07:13:46.813Z,98406.41
2022-11-17T07:16:21.706Z,98406.41
2022-11-17T07:18:49.516Z,98400.41
2022-11-17T07:21:17.931Z,98409.78
2022-11-17T07:23:45.850Z,98397.44
2022-11-17T07:26:14.300Z,98397.38
2022-11-17T07:28:41.794Z,98405.19
2022-11-17T07:31:09.514Z,98407.34
2022-11-17T07:33:37.165Z,98409.25
2022-11-17T07:36:07.651Z,98404.66
2022-11-17T07:38:36.211Z,98411.00
2022-11-17T07:41:05.133Z,98414.72
2022-11-17T07:43:33.218Z,98411.00
2022-11-17T07:46:18.764Z,98427.75
2022-11-17T07:48:46.357Z,98422.59
2022-11-17T07:51:14.176Z,98424.22
2022-11-17T07:53:41.577Z,98431.00
2022-11-17T07:56:11.046Z,98422.53
2022-11-17T07:58:38.854Z,98412.25
2022-11-17T08:01:07.914Z,98409.88
2022-11-17T08:03:35.645Z,98416.84
2022-11-17T08:06:07.285Z,98416.50
2022-11-17T08:08:35.396Z,98407.06
2022-11-17T08:11:10.851Z,98401.72
2022-11-17T08:13:39.730Z,98405.75
2022-11-17T08:16:08.991Z,98412.91
2022-11-17T08:18:39.567Z,98417.19
2022-11-17T08:21:10.204Z,98419.78
2022-11-17T08:23:38.593Z,98423.69
2022-11-17T08:26:07.461Z,98423.09
2022-11-17T08:28:36.027Z,98429.34
2022-11-17T08:31:05.370Z,98422.34
2022-11-17T08:33:33.196Z,98420.88
2022-11-17T08:36:01.899Z,98439.41
2022-11-17T08:38:29.943Z,98427.03
2022-11-17T08:41:05.129Z,98429.44
2022-11-17T08:43:32.931Z,98433.69
2022-11-17T08:46:00.255Z,98441.72
2022-11-17T08:48:28.196Z,98443.88
2022-11-17T08:50:55.998Z,98451.44
2022-11-17T08:53:23.686Z,98450.81
2022-11-17T08:55:51.968Z,98447.44
2022-11-17T08:58:19.673Z,98453.97
2022-11-17T09:00:47.605Z,98450.19
2022-11-17T09:03:15.414Z,98451.81
2022-11-17T09:05:45.097Z,98443.59
2022-11-17T09:11:09.403Z,98454.72
2022-11-17T09:13:36.997Z,98452.69
2022-11-17T09:16:07.076Z,98458.84
2022-11-17T09:18:35.259Z,98466.53
2022-11-17T09:21:05.060Z,98467.38
2022-11-17T09:23:32.997Z,98465.22
2022-11-17T09:26:06.125Z,98467.09
2022-11-17T09:28:34.179Z,98471.88
2022-11-17T09:31:12.811Z,98467.97
2022-11-17T09:33:40.911Z,98473.28
2022-11-17T09:36:09.199Z,98463.19
2022-11-17T09:38:37.489Z,98458.38
2022-11-17T09:41:28.604Z,98461.91
2022-11-17T09:44:16.132Z,98460.69
2022-11-17T09:46:52.685Z,98451.88
2022-11-17T09:49:43.961Z,98448.34
2022-11-17T09:52:19.096Z,98454.91
2022-11-17T09:54:48.623Z,98447.03
2022-11-17T09:57:44.224Z,98442.69
2022-11-17T10:00:14.378Z,98443.75
2022-11-17T10:02:42.827Z,98436.88
2022-11-17T10:05:21.216Z,98435.16
2022-11-17T10:07:50.807Z,98436.41
2022-11-17T10:10:34.313Z,98432.50
2022-11-17T10:13:05.027Z,98439.81
2022-11-17T10:15:48.775Z,98435.81
2022-11-17T10:18:16.863Z,98441.62
2022-11-17T10:20:45.424Z,98438.53
2022-11-17T10:23:15.636Z,98440.84
2022-11-17T10:25:45.583Z,98435.19
2022-11-17T10:28:31.142Z,98439.47
2022-11-17T10:31:02.527Z,98439.44
2022-11-17T10:33:38.431Z,98431.66
2022-11-17T10:36:20.437Z,98434.72
2022-11-17T10:38:50.837Z,98428.91
2022-11-17T10:41:24.304Z,98429.72
2022-11-17T10:44:03.769Z,98433.19
2022-11-17T10:46:43.209Z,98444.22
2022-11-17T10:49:24.998Z,98444.69
2022-11-17T10:52:16.450Z,98443.91
2022-11-17T10:54:44.082Z,98447.06
2022-11-17T10:57:30.018Z,98441.53
2022-11-17T10:59:57.861Z,98439.75
2022-11-17T11:02:39.339Z,98438.91
2022-11-17T11:05:08.355Z,98441.84
2022-11-17T11:07:36.731Z,98430.63
2022-11-17T11:10:25.198Z,98436.44
2022-11-17T11:12:59.277Z,98429.72
2022-11-17T11:15:31.546Z,98421.31
2022-11-17T11:17:59.166Z,98416.66
2022-11-17T11:20:47.519Z,98409.97
2022-11-17T11:23:33.864Z,98423.53
2022-11-17T11:26:28.953Z,98422.25
2022-11-17T11:29:30.956Z,98423.47
2022-11-17T11:32:04.094Z,98431.97
2022-11-17T11:34:39.753Z,98437.22
2022-11-17T11:37:09.748Z,98431.31
2022-11-17T11:39:56.087Z,98428.69
2022-11-17T11:42:37.231Z,98431.37
2022-11-17T11:45:13.641Z,98430.09
2022-11-17T11:47:59.264Z,98436.09
2022-11-17T11:50:28.500Z,98436.38
2022-11-17T11:53:00.696Z,98430.59
2022-11-17T11:55:31.556Z,98423.13
2022-11-17T11:58:06.333Z,98429.41
2022-11-17T12:00:34.257Z,98428.44
2022-11-17T12:03:20.774Z,98423.56
2022-11-17T12:06:33.930Z,98423.16
2022-11-17T12:09:09.308Z,98429.56
2022-11-17T12:11:57.500Z,98428.91
2022-11-17T12:14:35.340Z,98426.66
2022-11-17T12:17:06.631Z,98430.50
2022-11-17T12:19:54.065Z,98420.75
2022-11-17T12:22:49.283Z,98418.31
2022-11-17T12:25:18.107Z,98424.66
2022-11-17T12:27:50.140Z,98425.44
2022-11-17T12:30:32.719Z,98429.16
2022-11-17T12:33:04.880Z,98429.00
2022-11-17T12:35:34.619Z,98434.00
2022-11-17T12:38:14.291Z,98432.56
2022-11-17T12:40:44.854Z,98437.28
2022-11-17T12:43:20.867Z,98430.72
2022-11-17T12:46:00.384Z,98436.75
2022-11-17T12:48:38.486Z,98435.19
2022-11-17T12:51:17.134Z,98430.78
2022-11-17T12:54:01.169Z,98432.63
2022-11-17T12:56:50.723Z,98441.22
2022-11-17T12:59:20.634Z,98430.28
2022-11-17T13:02:03.874Z,98423.69
2022-11-17T13:04:49.829Z,98427.28
2022-11-17T13:07:20.808Z,98436.31
2022-11-17T13:09:53.981Z,98429.03
2022-11-17T13:12:23.158Z,98444.09
2022-11-17T13:14:58.166Z,98444.69
2022-11-17T13:17:31.285Z,98444.47
2022-11-17T13:20:04.111Z,98440.66
2022-11-17T13:22:31.739Z,98434.34
2022-11-17T13:25:12.903Z,98439.94
2022-11-17T13:27:47.992Z,98441.91
2022-11-17T13:30:25.602Z,98443.81
2022-11-17T13:32:54.896Z,98445.13
2022-11-17T13:35:29.436Z,98449.72
2022-11-17T13:38:23.834Z,98447.31
2022-11-17T13:40:52.571Z,98467.97
2022-11-17T13:43:21.527Z,98458.47
2022-11-17T13:45:49.769Z,98463.25
2022-11-17T13:48:36.697Z,98465.50
2022-11-17T13:51:39.412Z,98462.03
2022-11-17T13:54:14.153Z,98465.75
2022-11-17T13:57:07.980Z,98467.06
2022-11-17T13:59:37.495Z,98467.56
2022-11-17T14:02:17.666Z,98470.66
2022-11-17T14:05:18.309Z,98463.34
2022-11-17T14:07:46.817Z,98468.13
2022-11-17T14:10:31.420Z,98454.25
2022-11-17T14:13:04.643Z,98454.41
2022-11-17T14:15:34.597Z,98466.84
2022-11-17T14:18:17.428Z,98461.16
2022-11-17T14:20:45.027Z,98453.81
2022-11-17T14:23:12.237Z,98449.09
2022-11-17T14:25:41.673Z,98442.38
2022-11-17T14:28:25.459Z,98439.31
2022-11-17T14:30:57.551Z,98446.09
2022-11-17T14:33:25.882Z,98449.56
2022-11-17T14:35:55.548Z,98442.88
2022-11-17T14:38:23.128Z,98452.69
2022-11-17T14:40:52.407Z,98454.50
2022-11-17T14:43:21.139Z,98471.97
2022-11-17T14:45:49.517Z,98472.41
2022-11-17T14:48:19.409Z,98471.09
2022-11-17T14:50:48.298Z,98465.03
2022-11-17T14:53:15.629Z,98454.91
2022-11-17T14:55:43.207Z,98458.19
2022-11-17T14:58:10.538Z,98463.78
2022-11-17T15:00:37.873Z,98465.50
2022-11-17T15:03:05.514Z,98464.84
2022-11-17T15:05:32.961Z,98459.25
2022-11-17T15:08:00.341Z,98452.66
2022-11-17T15:10:27.921Z,98454.19
2022-11-17T15:12:55.754Z,98445.59
2022-11-17T15:15:23.074Z,98452.25
2022-11-17T15:17:50.641Z,98460.87
2022-11-17T15:20:17.961Z,98461.47
2022-11-17T15:22:45.390Z,98463.16
2022-11-17T15:25:12.972Z,98470.88
2022-11-17T15:27:40.297Z,98469.63
2022-11-17T15:30:08.293Z,98468.22
2022-11-17T15:32:36.781Z,98464.53
2022-11-17T15:35:04.166Z,98466.81
2022-11-17T15:37:31.487Z,98471.72
2022-11-17T15:39:59.203Z,98455.06
2022-11-17T15:42:26.517Z,98450.66
2022-11-17T15:44:53.828Z,98453.31
2022-11-17T15:47:21.428Z,98449.59
2022-11-17T15:49:48.742Z,98446.91
2022-11-17T15:52:17.512Z,98444.81
2022-11-17T15:54:47.066Z,98441.00
2022-11-17T15:57:14.373Z,98445.69
2022-11-17T15:59:41.682Z,98442.62
2022-11-17T16:02:09.726Z,98450.66
2022-11-17T16:04:37.373Z,98449.47
2022-11-17T16:07:04.743Z,98441.53
2022-11-17T16:09:32.114Z,98445.31
2022-11-17T16:11:59.763Z,98440.22
2022-11-17T16:14:27.101Z,98440.25
2022-11-17T16:16:54.420Z,98433.41
2022-11-17T16:19:21.994Z,98418.13
2022-11-17T16:21:49.993Z,98420.09
2022-11-17T16:24:17.351Z,98407.78
2022-11-17T16:26:45.833Z,98414.53
2022-11-17T16:29:13.445Z,98432.09
2022-11-17T16:31:41.140Z,98426.47
2022-11-17T16:34:14.027Z,98430.25
2022-11-17T16:36:42.920Z,98435.47
2022-11-17T16:39:13.415Z,98453.25
2022-11-17T16:41:42.348Z,98466.34
2022-11-17T16:44:14.542Z,98468.84
2022-11-17T16:46:44.346Z,98487.97
2022-11-17T16:49:14.104Z,98491.94
2022-11-17T16:51:47.220Z,98496.00
2022-11-17T16:54:14.564Z,98504.16
2022-11-17T16:56:42.342Z,98492.94
2022-11-17T16:59:11.068Z,98502.78
2022-11-17T17:01:38.672Z,98512.63
2022-11-17T17:04:08.947Z,98508.28
2022-11-17T17:06:39.469Z,98512.72
2022-11-17T17:09:09.031Z,98517.84
2022-11-17T17:11:36.837Z,98513.78
2022-11-17T17:14:06.698Z,98513.00
2022-11-17T17:16:36.432Z,98516.63
2022-11-17T17:19:06.150Z,98518.03
2022-11-17T17:21:35.132Z,98509.09
2022-11-17T17:24:02.624Z,98495.12
2022-11-17T17:26:31.441Z,98503.53
2022-11-17T17:29:00.398Z,98510.28
2022-11-17T17:31:33.969Z,98521.69
2022-11-17T17:34:01.872Z,98514.25
2022-11-17T17:36:30.694Z,98505.28
2022-11-17T17:39:02.083Z,98500.09
2022-11-17T17:41:35.076Z,98503.59
2022-11-17T17:44:05.908Z,98504.41
2022-11-17T17:46:36.795Z,98506.31
2022-11-17T17:49:05.181Z,98494.47
2022-11-17T17:51:44.645Z,98491.97
2022-11-17T17:54:17.876Z,98491.78
2022-11-17T17:56:45.851Z,98497.75
2022-11-17T17:59:14.362Z,98497.13
2022-11-17T18:01:43.897Z,98491.94
2022-11-17T18:04:15.882Z,98494.91
2022-11-17T18:06:49.332Z,98486.28
2022-11-17T18:09:19.693Z,98490.81
2022-11-17T18:11:50.838Z,98500.34
2022-11-17T18:14:24.864Z,98504.22
2022-11-17T18:16:53.589Z,98493.16
2022-11-17T18:19:23.985Z,98500.06
2022-11-17T18:21:53.773Z,98493.25
2022-11-17T18:24:21.901Z,98495.44
2022-11-17T18:26:50.304Z,98489.69
2022-11-17T18:29:21.029Z,98476.75
2022-11-17T18:31:49.841Z,98484.72
2022-11-17T18:34:21.580Z,98473.09
2022-11-17T18:36:51.733Z,98470.25
2022-11-17T18:39:20.734Z,98470.75
2022-11-17T18:41:48.867Z,98464.81
2022-11-17T18:44:19.908Z,98467.50
2022-11-17T18:46:48.060Z,98464.44
2022-11-17T18:49:18.490Z,98464.22
2022-11-17T18:51:47.120Z,98461.22
2022-11-17T18:54:15.973Z,98461.66
2022-11-17T18:56:44.911Z,98461.81
2022-11-17T18:59:13.318Z,98464.06
2022-11-17T19:01:43.337Z,98476.44
2022-11-17T19:04:15.174Z,98476.13
2022-11-17T19:06:43.481Z,98475.63
2022-11-17T19:09:11.467Z,98483.91
2022-11-17T19:11:39.234Z,98476.69
2022-11-17T19:14:07.436Z,98469.28
2022-11-17T19:16:44.044Z,98473.03
2022-11-17T19:19:14.061Z,98464.44
2022-11-17T19:21:42.425Z,98470.28
2022-11-17T19:24:10.281Z,98469.00
2022-11-17T19:26:39.332Z,98465.97
2022-11-17T19:29:16.089Z,98466.97
2022-11-17T19:31:46.383Z,98467.09
2022-11-17T19:34:16.288Z,98463.75
2022-11-17T19:36:45.297Z,98450.44
2022-11-17T19:39:14.795Z,98456.47
2022-11-17T19:41:44.049Z,98471.16
2022-11-17T19:44:12.063Z,98462.22
2022-11-17T19:46:40.252Z,98444.50
2022-11-17T19:49:09.159Z,98436.63
2022-11-17T19:51:38.492Z,98415.37
2022-11-17T19:54:09.227Z,98424.84
2022-11-17T19:56:38.713Z,98429.00
2022-11-17T19:59:09.757Z,98435.75
2022-11-17T20:01:40.634Z,98423.63
2022-11-17T20:04:08.951Z,98444.53
2022-11-17T20:06:37.814Z,98457.09
2022-11-17T20:09:08.480Z,98456.75
2022-11-17T20:11:38.408Z,98467.16
2022-11-17T20:14:08.956Z,98456.78
2022-11-17T20:16:39.094Z,98443.59
2022-11-17T20:19:07.012Z,98431.75
2022-11-17T20:21:35.985Z,98400.94
2022-11-17T20:24:04.155Z,98416.94
2022-11-17T20:26:35.523Z,98457.28
2022-11-17T20:29:03.656Z,98456.75
2022-11-17T20:31:33.604Z,98462.13
2022-11-17T20:34:02.546Z,98466.81
2022-11-17T20:36:30.886Z,98468.75
2022-11-17T20:39:01.635Z,98474.34
2022-11-17T20:41:29.353Z,98466.72
2022-11-17T20:43:59.889Z,98474.97
2022-11-17T20:46:28.114Z,98466.03
2022-11-17T20:48:56.017Z,98473.84
2022-11-17T20:51:25.204Z,98476.13
2022-11-17T20:53:53.921Z,98471.63
2022-11-17T20:56:21.809Z,98467.09
2022-11-17T20:58:50.649Z,98467.41
2022-11-17T21:01:22.907Z,98456.75
2022-11-17T21:03:50.593Z,98466.12
2022-11-17T21:06:20.062Z,98464.22
2022-11-17T21:08:47.581Z,98448.78
2022-11-17T21:11:36.117Z,98459.63
2022-11-17T21:14:05.497Z,98454.47
2022-11-17T21:16:34.496Z,98447.84
2022-11-17T21:19:01.993Z,98454.94
2022-11-17T21:21:29.844Z,98456.84
2022-11-17T21:23:58.929Z,98458.78
2022-11-17T21:26:27.909Z,98454.44
2022-11-17T21:28:55.539Z,98454.47
2022-11-17T21:31:27.576Z,98453.75
2022-11-17T21:33:56.412Z,98470.47
2022-11-17T21:36:25.470Z,98480.88
2022-11-17T21:38:53.461Z,98482.41
2022-11-17T21:41:26.048Z,98463.13
2022-11-17T21:43:55.331Z,98466.88
2022-11-17T21:46:25.083Z,98456.75
2022-11-17T21:48:53.615Z,98444.16
2022-11-17T21:51:37.759Z,98437.28
2022-11-17T21:54:07.246Z,98429.41
2022-11-17T21:56:35.905Z,98451.31
2022-11-17T21:59:10.513Z,98458.25
2022-11-17T22:01:38.133Z,98456.91
2022-11-17T22:04:05.836Z,98450.25
2022-11-17T22:06:33.215Z,98459.25
2022-11-17T22:09:00.672Z,98454.22
2022-11-17T22:11:36.877Z,98446.34
2022-11-17T22:14:11.801Z,98467.97
2022-11-17T22:16:40.328Z,98463.25
2022-11-17T22:19:08.532Z,98450.69
2022-11-17T22:21:36.657Z,98447.50
2022-11-17T22:24:05.222Z,98457.88
2022-11-17T22:26:33.014Z,98451.44
2022-11-17T22:29:00.333Z,98438.00
2022-11-17T22:31:27.927Z,98447.94
2022-11-17T22:33:55.255Z,98440.69
2022-11-17T22:36:22.666Z,98437.19
2022-11-17T22:38:51.309Z,98438.63
2022-11-17T22:41:20.739Z,98443.56
2022-11-17T22:43:52.268Z,98430.44
2022-11-17T22:46:21.129Z,98417.41
2022-11-17T22:48:48.623Z,98438.66
2022-11-17T22:51:35.186Z,98435.53
2022-11-17T22:54:02.776Z,98429.91
2022-11-17T22:56:30.217Z,98423.06
2022-11-17T22:58:59.866Z,98421.19
2022-11-17T23:01:27.973Z,98411.19
2022-11-17T23:03:55.290Z,98412.97
2022-11-17T23:06:22.810Z,98408.75
2022-11-17T23:08:50.753Z,98411.97
2022-11-17T23:14:08.229Z,98413.25
2022-11-17T23:16:38.916Z,98412.84
2022-11-17T23:19:06.929Z,98415.66
2022-11-17T23:21:34.253Z,98401.47
2022-11-17T23:24:01.559Z,98399.25
2022-11-17T23:26:29.136Z,98404.88
2022-11-17T23:28:56.538Z,98415.13
2022-11-17T23:31:23.841Z,98412.88
2022-11-17T23:33:51.465Z,98417.16
2022-11-17T23:36:22.225Z,98406.84
2022-11-17T23:38:50.209Z,98406.28
2022-11-17T23:41:19.779Z,98408.25
2022-11-17T23:43:50.157Z,98406.28
2022-11-17T23:46:19.622Z,98405.28
2022-11-17T23:48:46.937Z,98403.72
2022-11-17T23:51:16.935Z,98398.84
2022-11-17T23:53:44.600Z,98401.84
2022-11-17T23:56:11.919Z,98394.78
2022-11-17T23:58:39.630Z,98396.03
